Terminal Aerodrome Forecast
Issued by NWS

Home | Current Version | Previous Version | Text Only | Print | Product List | Glossary On
Versions: 1 2 3 4 5 6 7 8 9 10 11 12 13 14 15 16 17 18 19 20 21
695
FTUS44 KLIX 211120
TAFGPT
TAF
KGPT 211120Z 2112/2212 19008G17KT 1SM BR OVC002
     FM211330 21020G40KT 1SM +TSRA BKN006 OVC015CB
     FM211700 22011KT P6SM SCT010 OVC020
     FM212100 22010KT P6SM OVC040
      TEMPO 2121/2201 2SM TSRA BR BKN020CB OVC040
     FM220300 21008KT P6SM BKN020
     FM220800 23012KT 5SM -RA BKN008 OVC015=

USA.gov is the U.S. government's official web portal to all federal, state and local government web resources and services.